Sunday, March 29, 2015
17:22 UTC
  |  Log In   |  Register Free
Airport Search:

Okmulgee Regional Airport
(KOKM)

Okmulgee Regional Airport Diagram
No Airport Diagram Available

FAA data valid effective March 05, 2015 - April 30, 2015 (unless otherwise noted).

 
 
 
 
 
 
 
 
 
 
 
 
 
 

Current Aviation Weather for Okmulgee Regional Airport (KOKM)

The most recent METAR observation for KOKM was updated at: 1412
METAR Summary (Translated METAR)
KOKM
251355Z AUTO 12003KT 10SM OVC014 16/13 A2989 RMK AO2 T01560130
KF10
081459Z 31001KT 16/16 RMK PK WND 29004KT PCPN 1/3/6/12/24H 0.00 0.01 0.02 0.02 0.04
(16 nm SW from KOKM)
KRVS
251353Z 11005KT 10SM OVC020 16/09 A2991 RMK AO2 SLP133 T01560094
(22.4 nm NW from KOKM)
TAF Summary (Translated TAF)
KRVS
(22.4 nm NW from KOKM)
251348Z 2514/2612 16011KT P6SM BKN020 FM251700 16012G20KT P6SM SCT025 BKN035 FM252100 17015G23KT 5SM -TSRA BKN025CB FM260000 22017G25KT 3SM -TSRA BKN025CB FM260200 36022G32KT 4SM -TSRA OVC015CB FM260600 35021KT P6SM OVC050
  Airport Weather Conditions for KOKM

 Current Weather at OKM
63° F
Fair
South winds at 11.5 mph
OKM NOAA Radar

Pressure: 30.01 in
Humidity: 51%
Wind: from the South at 11.5 gusting to 18.4 MPH (10 gusting to 16 KT)
Dew Point: 43.9°F
Visibility: 10.00 mi


Airport Weather Forecast for KOKM

Translated METAR and TAF for KOKM
Translated METAR for KOKM (1721 UTC 29 March 2015)
found at http://aviationweather.gov/adds/metars/
 
METAR text: KOKM 291715Z AUTO 00000KT 10SM CLR 18/07 A3002 RMK AO2 T01810071
Conditions at: KOKM (OKMULGEE , OK, US) observed 1715 UTC 29 March 2015
Temperature: 18.1°C (65°F)
Dewpoint: 7.1°C (45°F) [RH = 49%]
Pressure (altimeter): 30.02 inches Hg (1016.7 mb)
Winds: calm
Visibility: 10 or more miles (16+ km)
Ceiling: at least 12,000 feet AGL
Clouds: sky clear below 12,000 feet AGL
Weather: automated observation with no human augmentation;
there may or may not be significant weather present at this time
Translated TAF for KOKM

There is no translated TAF available for this airport

Find All Airport Services Find A Hotel Find A Rental Car Find A Golf Course Find A Restaurant $100 Hamburger



FBO's on the Field
FBO Company Facility Photos Services Transportation Aviation Fuel Prices: Prices include tax
Catering Weather Repair Courtesy Rental Type 100LL JetA JetA+ MOGAS 8087
 
Okmulgee Regional Airport

This FBO has not yet been rated
FS:Phillips 66
Last Updated: Mar-11
Login to update fuel prices
SS:
Contact Okmulgee Regional AirportMore FBO Information
 
Add another FBO Facility Photos Catering Weather Repair Courtesy Rental Type 100LL JetA JetA+ MOGAS 8087
Services Transportation Aviation Fuel Prices: Prices include tax


model-print
model-print
model-print
model-print